sensor_id;sensor_type;location;lat;lon;timestamp;P1;P2;P0
65556;PMS3003;52200;53.490;14.376;2022-09-03T00:00:13;23.80;17.00;9.80
65556;PMS3003;52200;53.490;14.376;2022-09-03T00:02:41;23.60;17.20;9.20
65556;PMS3003;52200;53.490;14.376;2022-09-03T00:10:04;14.50;9.50;7.00
65556;PMS3003;52200;53.490;14.376;2022-09-03T00:12:37;15.40;10.40;6.00
65556;PMS3003;52200;53.490;14.376;2022-09-03T00:15:10;12.40;8.60;4.00
65556;PMS3003;52200;53.490;14.376;2022-09-03T00:20:21;9.60;6.40;3.60
65556;PMS3003;52200;53.490;14.376;2022-09-03T00:22:57;11.80;7.40;4.00
65556;PMS3003;52200;53.490;14.376;2022-09-03T00:25:37;10.00;6.20;3.00
65556;PMS3003;52200;53.490;14.376;2022-09-03T00:28:15;8.00;3.20;2.00
65556;PMS3003;52200;53.490;14.376;2022-09-03T00:30:45;10.20;5.80;3.00
65556;PMS3003;52200;53.490;14.376;2022-09-03T00:33:20;12.80;7.00;3.60
65556;PMS3003;52200;53.490;14.376;2022-09-03T00:35:50;10.00;6.80;2.60
65556;PMS3003;52200;53.490;14.376;2022-09-03T00:38:29;13.40;7.00;3.00
65556;PMS3003;52200;53.490;14.376;2022-09-03T00:46:19;12.00;6.60;3.00
65556;PMS3003;52200;53.490;14.376;2022-09-03T01:01:59;7.00;2.60;1.60
65556;PMS3003;52200;53.490;14.376;2022-09-03T01:04:39;7.80;2.00;1.00
65556;PMS3003;52200;53.490;14.376;2022-09-03T01:07:31;7.60;3.20;1.00
65556;PMS3003;52200;53.490;14.376;2022-09-03T01:18:30;7.20;2.60;1.80
65556;PMS3003;52200;53.490;14.376;2022-09-03T01:23:48;7.00;3.00;1.40
65556;PMS3003;52200;53.490;14.376;2022-09-03T01:48:31;8.80;4.00;2.00
65556;PMS3003;52200;53.490;14.376;2022-09-03T02:01:46;7.75;3.25;1.75
65556;PMS3003;52200;53.490;14.376;2022-09-03T02:04:19;9.80;5.40;2.00
65556;PMS3003;52200;53.490;14.376;2022-09-03T02:06:48;10.80;4.20;2.20
65556;PMS3003;52200;53.490;14.376;2022-09-03T02:09:15;9.80;4.60;2.40
65556;PMS3003;52200;53.490;14.376;2022-09-03T02:11:41;9.00;3.00;1.80
65556;PMS3003;52200;53.490;14.376;2022-09-03T02:14:10;8.00;3.20;1.80
65556;PMS3003;52200;53.490;14.376;2022-09-03T02:16:37;10.60;6.60;2.20
65556;PMS3003;52200;53.490;14.376;2022-09-03T02:19:07;7.20;3.20;2.00
65556;PMS3003;52200;53.490;14.376;2022-09-03T02:21:39;8.00;3.80;2.00
65556;PMS3003;52200;53.490;14.376;2022-09-03T02:24:11;10.00;3.00;1.20
65556;PMS3003;52200;53.490;14.376;2022-09-03T02:26:38;7.20;3.00;1.80
65556;PMS3003;52200;53.490;14.376;2022-09-03T02:29:03;7.00;2.00;1.00
65556;PMS3003;52200;53.490;14.376;2022-09-03T02:31:29;7.25;3.00;1.50
65556;PMS3003;52200;53.490;14.376;2022-09-03T02:33:55;9.40;3.00;1.20
65556;PMS3003;52200;53.490;14.376;2022-09-03T02:36:27;8.40;3.20;2.00
65556;PMS3003;52200;53.490;14.376;2022-09-03T02:38:55;7.20;3.00;1.00
65556;PMS3003;52200;53.490;14.376;2022-09-03T02:41:21;7.60;2.20;1.00
65556;PMS3003;52200;53.490;14.376;2022-09-03T02:43:58;7.80;3.20;1.20
65556;PMS3003;52200;53.490;14.376;2022-09-03T02:46:41;8.00;3.40;2.00
65556;PMS3003;52200;53.490;14.376;2022-09-03T02:49:28;7.80;2.20;1.00
65556;PMS3003;52200;53.490;14.376;2022-09-03T02:51:58;6.20;2.40;1.00
65556;PMS3003;52200;53.490;14.376;2022-09-03T02:54:33;6.20;2.00;1.00
65556;PMS3003;52200;53.490;14.376;2022-09-03T02:57:07;8.60;3.20;1.00
65556;PMS3003;52200;53.490;14.376;2022-09-03T02:59:34;7.00;2.40;1.00
65556;PMS3003;52200;53.490;14.376;2022-09-03T03:02:01;7.60;3.00;1.00
65556;PMS3003;52200;53.490;14.376;2022-09-03T03:04:28;8.20;3.80;2.00
65556;PMS3003;52200;53.490;14.376;2022-09-03T03:06:54;6.80;2.00;1.20
65556;PMS3003;52200;53.490;14.376;2022-09-03T03:09:20;7.75;3.50;2.00
65556;PMS3003;52200;53.490;14.376;2022-09-03T03:11:46;6.80;2.60;1.20
65556;PMS3003;52200;53.490;14.376;2022-09-03T03:14:13;10.00;3.40;2.00
65556;PMS3003;52200;53.490;14.376;2022-09-03T03:16:39;5.25;2.00;2.00
65556;PMS3003;52200;53.490;14.376;2022-09-03T03:19:04;6.50;2.50;1.00
65556;PMS3003;52200;53.490;14.376;2022-09-03T03:21:30;8.00;3.00;1.50
65556;PMS3003;52200;53.490;14.376;2022-09-03T03:23:55;8.00;3.00;1.00
65556;PMS3003;52200;53.490;14.376;2022-09-03T03:26:21;8.50;4.00;1.00
65556;PMS3003;52200;53.490;14.376;2022-09-03T03:28:48;6.60;2.20;1.40
65556;PMS3003;52200;53.490;14.376;2022-09-03T03:31:21;7.40;3.00;1.20
65556;PMS3003;52200;53.490;14.376;2022-09-03T03:33:53;7.00;2.60;1.00
65556;PMS3003;52200;53.490;14.376;2022-09-03T03:36:21;6.80;2.40;1.00
65556;PMS3003;52200;53.490;14.376;2022-09-03T03:38:48;8.60;3.60;2.00
65556;PMS3003;52200;53.490;14.376;2022-09-03T03:41:18;6.80;3.00;1.00
65556;PMS3003;52200;53.490;14.376;2022-09-03T03:43:51;7.40;2.60;1.00
65556;PMS3003;52200;53.490;14.376;2022-09-03T03:46:18;8.00;3.00;1.00
65556;PMS3003;52200;53.490;14.376;2022-09-03T03:48:46;8.00;2.75;1.00
65556;PMS3003;52200;53.490;14.376;2022-09-03T03:51:12;5.00;1.80;1.00
65556;PMS3003;52200;53.490;14.376;2022-09-03T03:53:38;8.00;3.50;2.00
65556;PMS3003;52200;53.490;14.376;2022-09-03T03:56:08;6.00;2.20;1.00
65556;PMS3003;52200;53.490;14.376;2022-09-03T03:58:36;7.80;3.20;2.00
65556;PMS3003;52200;53.490;14.376;2022-09-03T04:01:10;7.00;2.40;1.00
65556;PMS3003;52200;53.490;14.376;2022-09-03T04:03:37;5.20;2.00;1.00
65556;PMS3003;52200;53.490;14.376;2022-09-03T04:06:02;6.50;2.25;1.25
65556;PMS3003;52200;53.490;14.376;2022-09-03T04:08:29;7.00;1.80;1.00
65556;PMS3003;52200;53.490;14.376;2022-09-03T04:10:58;7.00;2.00;1.60
65556;PMS3003;52200;53.490;14.376;2022-09-03T04:13:29;7.20;2.40;1.00
65556;PMS3003;52200;53.490;14.376;2022-09-03T04:16:02;7.00;2.00;1.00
65556;PMS3003;52200;53.490;14.376;2022-09-03T04:18:30;7.60;3.40;0.60
65556;PMS3003;52200;53.490;14.376;2022-09-03T04:21:00;8.00;4.00;2.00
65556;PMS3003;52200;53.490;14.376;2022-09-03T04:23:28;8.40;3.00;1.00
65556;PMS3003;52200;53.490;14.376;2022-09-03T04:26:01;6.60;2.60;1.60
65556;PMS3003;52200;53.490;14.376;2022-09-03T04:28:27;6.40;2.20;1.00
65556;PMS3003;52200;53.490;14.376;2022-09-03T04:30:53;8.25;4.00;1.00
65556;PMS3003;52200;53.490;14.376;2022-09-03T04:33:19;5.00;1.80;1.00
65556;PMS3003;52200;53.490;14.376;2022-09-03T04:35:45;7.00;2.00;1.00
65556;PMS3003;52200;53.490;14.376;2022-09-03T04:38:11;5.25;2.00;1.00
65556;PMS3003;52200;53.490;14.376;2022-09-03T04:40:36;6.80;2.60;1.40
65556;PMS3003;52200;53.490;14.376;2022-09-03T04:43:02;7.75;3.00;1.25
65556;PMS3003;52200;53.490;14.376;2022-09-03T04:45:28;7.40;3.00;1.00
65556;PMS3003;52200;53.490;14.376;2022-09-03T04:47:55;5.20;1.80;1.00
65556;PMS3003;52200;53.490;14.376;2022-09-03T04:50:21;7.00;2.00;1.00
65556;PMS3003;52200;53.490;14.376;2022-09-03T04:52:47;7.00;2.80;2.00
65556;PMS3003;52200;53.490;14.376;2022-09-03T04:55:13;8.00;3.25;2.00
65556;PMS3003;52200;53.490;14.376;2022-09-03T04:57:39;7.60;3.00;2.00
65556;PMS3003;52200;53.490;14.376;2022-09-03T05:00:07;7.40;2.80;2.00
65556;PMS3003;52200;53.490;14.376;2022-09-03T05:02:35;7.20;2.80;2.00
65556;PMS3003;52200;53.490;14.376;2022-09-03T05:05:01;9.50;4.25;1.00
65556;PMS3003;52200;53.490;14.376;2022-09-03T05:07:27;6.40;2.40;1.00
65556;PMS3003;52200;53.490;14.376;2022-09-03T05:10:03;7.40;3.00;1.20
65556;PMS3003;52200;53.490;14.376;2022-09-03T05:12:30;5.80;2.40;1.40
65556;PMS3003;52200;53.490;14.376;2022-09-03T05:14:57;6.20;3.00;1.40
65556;PMS3003;52200;53.490;14.376;2022-09-03T05:17:24;5.40;1.80;1.40
65556;PMS3003;52200;53.490;14.376;2022-09-03T05:19:50;7.20;2.80;1.00
65556;PMS3003;52200;53.490;14.376;2022-09-03T05:22:16;9.50;4.75;2.00
65556;PMS3003;52200;53.490;14.376;2022-09-03T05:24:45;8.20;3.80;2.80
65556;PMS3003;52200;53.490;14.376;2022-09-03T05:27:12;8.20;3.00;1.40
65556;PMS3003;52200;53.490;14.376;2022-09-03T05:29:41;8.40;4.00;1.40
65556;PMS3003;52200;53.490;14.376;2022-09-03T05:32:07;7.60;3.00;1.40
65556;PMS3003;52200;53.490;14.376;2022-09-03T05:34:33;5.50;2.25;1.00
65556;PMS3003;52200;53.490;14.376;2022-09-03T05:36:58;7.00;2.00;1.00
65556;PMS3003;52200;53.490;14.376;2022-09-03T05:39:24;7.50;3.00;1.00
65556;PMS3003;52200;53.490;14.376;2022-09-03T05:41:49;6.25;2.75;1.75
65556;PMS3003;52200;53.490;14.376;2022-09-03T05:44:16;5.00;2.00;1.00
65556;PMS3003;52200;53.490;14.376;2022-09-03T05:46:42;6.80;3.00;1.00
65556;PMS3003;52200;53.490;14.376;2022-09-03T05:49:08;6.00;3.00;1.00
65556;PMS3003;52200;53.490;14.376;2022-09-03T05:51:35;7.60;2.40;1.00
65556;PMS3003;52200;53.490;14.376;2022-09-03T05:54:03;6.80;2.20;1.00
65556;PMS3003;52200;53.490;14.376;2022-09-03T05:56:29;5.50;2.00;1.00
65556;PMS3003;52200;53.490;14.376;2022-09-03T05:58:57;5.00;2.00;1.20
65556;PMS3003;52200;53.490;14.376;2022-09-03T06:01:29;5.20;2.00;1.00
65556;PMS3003;52200;53.490;14.376;2022-09-03T06:03:57;6.40;2.00;1.00
65556;PMS3003;52200;53.490;14.376;2022-09-03T06:06:28;4.80;1.80;0.00
65556;PMS3003;52200;53.490;14.376;2022-09-03T06:08:56;6.40;2.00;1.00
65556;PMS3003;52200;53.490;14.376;2022-09-03T06:11:24;5.00;1.60;0.00
65556;PMS3003;52200;53.490;14.376;2022-09-03T06:13:52;5.00;2.00;0.60
65556;PMS3003;52200;53.490;14.376;2022-09-03T06:16:19;5.60;1.00;1.00
65556;PMS3003;52200;53.490;14.376;2022-09-03T06:18:46;6.60;2.80;1.00
65556;PMS3003;52200;53.490;14.376;2022-09-03T06:21:11;5.50;2.00;1.00
65556;PMS3003;52200;53.490;14.376;2022-09-03T06:23:38;6.40;1.80;1.00
65556;PMS3003;52200;53.490;14.376;2022-09-03T06:26:06;7.00;2.40;1.00
65556;PMS3003;52200;53.490;14.376;2022-09-03T06:28:34;5.00;2.00;1.00
65556;PMS3003;52200;53.490;14.376;2022-09-03T06:31:02;4.60;1.00;0.40
65556;PMS3003;52200;53.490;14.376;2022-09-03T06:33:29;5.00;1.20;1.00
65556;PMS3003;52200;53.490;14.376;2022-09-03T06:35:56;6.00;1.80;1.00
65556;PMS3003;52200;53.490;14.376;2022-09-03T06:38:23;6.00;1.40;0.80
65556;PMS3003;52200;53.490;14.376;2022-09-03T06:40:57;4.00;1.00;0.00
65556;PMS3003;52200;53.490;14.376;2022-09-03T06:43:28;5.00;1.00;0.80
65556;PMS3003;52200;53.490;14.376;2022-09-03T06:45:59;6.40;2.00;1.00
65556;PMS3003;52200;53.490;14.376;2022-09-03T06:48:37;5.00;2.00;1.00
65556;PMS3003;52200;53.490;14.376;2022-09-03T06:51:05;5.40;1.80;0.40
65556;PMS3003;52200;53.490;14.376;2022-09-03T06:53:33;6.00;2.00;0.00
65556;PMS3003;52200;53.490;14.376;2022-09-03T06:56:02;5.60;2.00;0.80
65556;PMS3003;52200;53.490;14.376;2022-09-03T06:58:33;5.00;2.00;1.00
65556;PMS3003;52200;53.490;14.376;2022-09-03T07:01:11;4.20;1.00;0.00
65556;PMS3003;52200;53.490;14.376;2022-09-03T07:03:39;6.00;2.00;1.00
65556;PMS3003;52200;53.490;14.376;2022-09-03T07:06:07;6.20;2.40;0.00
65556;PMS3003;52200;53.490;14.376;2022-09-03T07:08:34;5.80;2.00;1.00
65556;PMS3003;52200;53.490;14.376;2022-09-03T07:11:07;5.00;1.75;0.75
65556;PMS3003;52200;53.490;14.376;2022-09-03T07:13:34;5.00;2.00;1.00
65556;PMS3003;52200;53.490;14.376;2022-09-03T07:16:02;6.00;1.60;0.20
65556;PMS3003;52200;53.490;14.376;2022-09-03T07:18:32;6.80;2.60;1.00
65556;PMS3003;52200;53.490;14.376;2022-09-03T07:21:02;5.60;2.40;0.00
65556;PMS3003;52200;53.490;14.376;2022-09-03T07:23:30;4.40;1.00;0.60
65556;PMS3003;52200;53.490;14.376;2022-09-03T07:25:57;4.80;1.00;0.80
65556;PMS3003;52200;53.490;14.376;2022-09-03T07:28:27;4.00;1.00;0.80
65556;PMS3003;52200;53.490;14.376;2022-09-03T07:30:55;4.00;1.00;0.00
65556;PMS3003;52200;53.490;14.376;2022-09-03T07:33:27;4.20;1.00;0.00
65556;PMS3003;52200;53.490;14.376;2022-09-03T07:35:54;6.20;1.00;0.80
65556;PMS3003;52200;53.490;14.376;2022-09-03T07:38:19;5.75;2.25;0.00
65556;PMS3003;52200;53.490;14.376;2022-09-03T07:40:47;4.00;1.00;0.20
65556;PMS3003;52200;53.490;14.376;2022-09-03T07:43:12;5.00;1.50;1.00
65556;PMS3003;52200;53.490;14.376;2022-09-03T07:45:38;4.00;1.00;0.00
65556;PMS3003;52200;53.490;14.376;2022-09-03T07:48:04;4.00;1.00;0.00
65556;PMS3003;52200;53.490;14.376;2022-09-03T07:50:29;7.00;2.00;1.00
65556;PMS3003;52200;53.490;14.376;2022-09-03T07:53:01;5.00;2.00;0.60
65556;PMS3003;52200;53.490;14.376;2022-09-03T07:55:27;5.00;1.25;0.25
65556;PMS3003;52200;53.490;14.376;2022-09-03T07:57:55;5.50;1.00;1.00
65556;PMS3003;52200;53.490;14.376;2022-09-03T08:00:22;4.20;0.80;0.00
65556;PMS3003;52200;53.490;14.376;2022-09-03T08:02:48;6.75;3.00;0.50
65556;PMS3003;52200;53.490;14.376;2022-09-03T08:05:15;3.80;0.40;0.00
65556;PMS3003;52200;53.490;14.376;2022-09-03T08:07:44;4.40;1.40;0.00
65556;PMS3003;52200;53.490;14.376;2022-09-03T08:10:09;6.50;2.00;1.00
65556;PMS3003;52200;53.490;14.376;2022-09-03T08:12:35;5.50;2.25;0.00
65556;PMS3003;52200;53.490;14.376;2022-09-03T08:15:00;4.00;1.00;0.00
65556;PMS3003;52200;53.490;14.376;2022-09-03T08:17:26;3.60;0.00;0.00
65556;PMS3003;52200;53.490;14.376;2022-09-03T08:19:52;3.00;0.00;0.00
65556;PMS3003;52200;53.490;14.376;2022-09-03T08:22:17;5.75;1.00;0.00
65556;PMS3003;52200;53.490;14.376;2022-09-03T08:24:44;5.40;1.20;0.00
65556;PMS3003;52200;53.490;14.376;2022-09-03T08:27:09;4.75;1.75;1.00
65556;PMS3003;52200;53.490;14.376;2022-09-03T08:29:35;6.00;0.00;0.00
65556;PMS3003;52200;53.490;14.376;2022-09-03T08:32:00;3.00;0.00;0.00
65556;PMS3003;52200;53.490;14.376;2022-09-03T08:34:27;3.60;0.00;0.00
65556;PMS3003;52200;53.490;14.376;2022-09-03T08:36:52;4.50;0.25;0.00
65556;PMS3003;52200;53.490;14.376;2022-09-03T08:39:18;3.00;0.00;0.00
65556;PMS3003;52200;53.490;14.376;2022-09-03T08:52:05;3.00;0.00;0.00
65556;PMS3003;52200;53.490;14.376;2022-09-03T08:54:41;3.00;0.00;0.00
65556;PMS3003;52200;53.490;14.376;2022-09-03T08:57:08;4.00;0.80;0.00
65556;PMS3003;52200;53.490;14.376;2022-09-03T08:59:34;3.60;0.40;0.00
65556;PMS3003;52200;53.490;14.376;2022-09-03T09:02:15;3.80;0.00;0.00
65556;PMS3003;52200;53.490;14.376;2022-09-03T09:04:58;4.80;0.80;0.00
65556;PMS3003;52200;53.490;14.376;2022-09-03T09:07:48;4.80;1.00;0.00
65556;PMS3003;52200;53.490;14.376;2022-09-03T09:10:25;4.80;0.00;0.00
65556;PMS3003;52200;53.490;14.376;2022-09-03T09:13:08;3.00;0.00;0.00
65556;PMS3003;52200;53.490;14.376;2022-09-03T09:15:53;3.00;0.00;0.00
65556;PMS3003;52200;53.490;14.376;2022-09-03T09:18:34;3.00;0.00;0.00
65556;PMS3003;52200;53.490;14.376;2022-09-03T09:23:54;3.00;0.00;0.00
65556;PMS3003;52200;53.490;14.376;2022-09-03T09:26:28;3.20;0.00;0.00
65556;PMS3003;52200;53.490;14.376;2022-09-03T09:28:57;2.80;0.00;0.00
65556;PMS3003;52200;53.490;14.376;2022-09-03T09:31:28;2.60;0.00;0.00
65556;PMS3003;52200;53.490;14.376;2022-09-03T09:33:54;3.00;0.00;0.00
65556;PMS3003;52200;53.490;14.376;2022-09-03T09:36:26;7.00;1.00;0.00
65556;PMS3003;52200;53.490;14.376;2022-09-03T09:38:52;3.40;0.00;0.00
65556;PMS3003;52200;53.490;14.376;2022-09-03T09:41:18;3.80;0.00;0.00
65556;PMS3003;52200;53.490;14.376;2022-09-03T09:43:46;4.00;0.00;0.00
65556;PMS3003;52200;53.490;14.376;2022-09-03T09:46:13;4.40;1.00;0.20
65556;PMS3003;52200;53.490;14.376;2022-09-03T09:48:48;3.00;0.00;0.00
65556;PMS3003;52200;53.490;14.376;2022-09-03T09:51:23;3.60;0.00;0.00
65556;PMS3003;52200;53.490;14.376;2022-09-03T09:56:42;4.00;0.00;0.00
65556;PMS3003;52200;53.490;14.376;2022-09-03T09:59:09;4.00;0.00;0.00
65556;PMS3003;52200;53.490;14.376;2022-09-03T10:01:37;3.80;0.00;0.00
65556;PMS3003;52200;53.490;14.376;2022-09-03T10:04:23;2.00;0.00;0.00
65556;PMS3003;52200;53.490;14.376;2022-09-03T10:07:03;2.60;0.00;0.00
65556;PMS3003;52200;53.490;14.376;2022-09-03T10:09:40;4.40;0.00;0.00
65556;PMS3003;52200;53.490;14.376;2022-09-03T10:14:48;2.00;0.00;0.00
65556;PMS3003;52200;53.490;14.376;2022-09-03T10:17:20;2.60;0.00;0.00
65556;PMS3003;52200;53.490;14.376;2022-09-03T10:22:55;3.00;0.00;0.00
65556;PMS3003;52200;53.490;14.376;2022-09-03T10:25:28;3.20;0.00;0.00
65556;PMS3003;52200;53.490;14.376;2022-09-03T10:28:14;2.60;0.00;0.00
65556;PMS3003;52200;53.490;14.376;2022-09-03T10:30:45;3.80;0.40;0.00
65556;PMS3003;52200;53.490;14.376;2022-09-03T10:33:35;3.00;0.00;0.00
65556;PMS3003;52200;53.490;14.376;2022-09-03T10:36:17;2.80;0.00;0.00
65556;PMS3003;52200;53.490;14.376;2022-09-03T10:41:36;2.80;0.00;0.00
65556;PMS3003;52200;53.490;14.376;2022-09-03T10:55:45;3.00;0.00;0.00
65556;PMS3003;52200;53.490;14.376;2022-09-03T10:58:44;4.80;1.00;0.00
65556;PMS3003;52200;53.490;14.376;2022-09-03T11:01:30;3.60;0.00;0.00
65556;PMS3003;52200;53.490;14.376;2022-09-03T11:09:47;2.60;0.00;0.00
65556;PMS3003;52200;53.490;14.376;2022-09-03T11:12:23;2.80;0.00;0.00
65556;PMS3003;52200;53.490;14.376;2022-09-03T11:14:56;4.00;0.60;0.00
65556;PMS3003;52200;53.490;14.376;2022-09-03T11:17:31;4.80;1.20;0.00
65556;PMS3003;52200;53.490;14.376;2022-09-03T11:20:19;5.80;0.60;0.00
65556;PMS3003;52200;53.490;14.376;2022-09-03T11:22:51;3.80;0.20;0.00
65556;PMS3003;52200;53.490;14.376;2022-09-03T11:25:26;4.00;0.00;0.00
65556;PMS3003;52200;53.490;14.376;2022-09-03T11:30:48;3.20;0.20;0.00
65556;PMS3003;52200;53.490;14.376;2022-09-03T11:33:28;3.00;0.00;0.00
65556;PMS3003;52200;53.490;14.376;2022-09-03T11:35:59;5.40;0.00;0.00
65556;PMS3003;52200;53.490;14.376;2022-09-03T11:38:26;2.60;0.00;0.00
65556;PMS3003;52200;53.490;14.376;2022-09-03T11:41:03;2.40;0.00;0.00
65556;PMS3003;52200;53.490;14.376;2022-09-03T11:43:40;3.60;0.40;0.00
65556;PMS3003;52200;53.490;14.376;2022-09-03T11:51:03;3.60;0.00;0.00
65556;PMS3003;52200;53.490;14.376;2022-09-03T11:53:51;2.80;0.00;0.00
65556;PMS3003;52200;53.490;14.376;2022-09-03T11:56:18;3.80;0.60;0.00
65556;PMS3003;52200;53.490;14.376;2022-09-03T11:58:44;2.50;0.00;0.00
65556;PMS3003;52200;53.490;14.376;2022-09-03T12:01:11;2.00;0.00;0.00
65556;PMS3003;52200;53.490;14.376;2022-09-03T12:19:55;3.80;0.80;0.00
65556;PMS3003;52200;53.490;14.376;2022-09-03T12:22:24;4.40;0.00;0.00
65556;PMS3003;52200;53.490;14.376;2022-09-03T12:24:52;6.40;1.40;0.00
65556;PMS3003;52200;53.490;14.376;2022-09-03T12:27:20;4.40;1.00;0.00
65556;PMS3003;52200;53.490;14.376;2022-09-03T12:29:58;4.00;0.40;0.00
65556;PMS3003;52200;53.490;14.376;2022-09-03T12:32:26;4.60;0.40;0.00
65556;PMS3003;52200;53.490;14.376;2022-09-03T12:35:10;2.60;0.00;0.00
65556;PMS3003;52200;53.490;14.376;2022-09-03T12:37:44;4.20;0.20;0.00
65556;PMS3003;52200;53.490;14.376;2022-09-03T12:40:43;4.60;0.00;0.00
65556;PMS3003;52200;53.490;14.376;2022-09-03T12:43:13;2.40;0.00;0.00
65556;PMS3003;52200;53.490;14.376;2022-09-03T12:45:41;3.40;0.00;0.00
65556;PMS3003;52200;53.490;14.376;2022-09-03T12:48:13;3.60;0.00;0.00
65556;PMS3003;52200;53.490;14.376;2022-09-03T12:50:42;3.20;0.20;0.00
65556;PMS3003;52200;53.490;14.376;2022-09-03T12:53:10;4.40;0.00;0.00
65556;PMS3003;52200;53.490;14.376;2022-09-03T12:55:45;3.00;0.00;0.00
65556;PMS3003;52200;53.490;14.376;2022-09-03T13:01:03;4.00;0.40;0.00
65556;PMS3003;52200;53.490;14.376;2022-09-03T13:06:12;3.00;0.00;0.00
65556;PMS3003;52200;53.490;14.376;2022-09-03T13:08:53;3.60;0.00;0.00
65556;PMS3003;52200;53.490;14.376;2022-09-03T13:11:21;3.00;0.00;0.00
65556;PMS3003;52200;53.490;14.376;2022-09-03T13:27:41;3.20;0.00;0.00
65556;PMS3003;52200;53.490;14.376;2022-09-03T13:30:20;2.20;0.00;0.00
65556;PMS3003;52200;53.490;14.376;2022-09-03T13:32:52;2.60;0.00;0.00
65556;PMS3003;52200;53.490;14.376;2022-09-03T13:35:39;3.20;0.20;0.00
65556;PMS3003;52200;53.490;14.376;2022-09-03T13:43:42;3.20;0.00;0.00
65556;PMS3003;52200;53.490;14.376;2022-09-03T13:52:04;2.40;0.00;0.00
65556;PMS3003;52200;53.490;14.376;2022-09-03T13:54:41;2.60;0.00;0.00
65556;PMS3003;52200;53.490;14.376;2022-09-03T13:57:29;3.20;0.20;0.00
65556;PMS3003;52200;53.490;14.376;2022-09-03T14:00:11;2.00;0.00;0.00
65556;PMS3003;52200;53.490;14.376;2022-09-03T14:07:51;3.60;0.00;0.00
65556;PMS3003;52200;53.490;14.376;2022-09-03T14:13:42;5.00;1.00;0.00
65556;PMS3003;52200;53.490;14.376;2022-09-03T14:16:25;3.40;0.00;0.00
65556;PMS3003;52200;53.490;14.376;2022-09-03T14:19:21;3.80;0.00;0.00
65556;PMS3003;52200;53.490;14.376;2022-09-03T14:22:19;2.60;0.00;0.00
65556;PMS3003;52200;53.490;14.376;2022-09-03T14:24:51;2.00;0.00;0.00
65556;PMS3003;52200;53.490;14.376;2022-09-03T14:27:28;3.20;0.00;0.00
65556;PMS3003;52200;53.490;14.376;2022-09-03T14:29:59;2.40;0.00;0.00
65556;PMS3003;52200;53.490;14.376;2022-09-03T14:38:01;3.00;0.00;0.00
65556;PMS3003;52200;53.490;14.376;2022-09-03T14:40:42;2.00;0.00;0.00
65556;PMS3003;52200;53.490;14.376;2022-09-03T14:56:58;2.80;0.00;0.00
65556;PMS3003;52200;53.490;14.376;2022-09-03T15:07:40;3.00;0.00;0.00
65556;PMS3003;52200;53.490;14.376;2022-09-03T15:15:47;3.00;0.00;0.00
65556;PMS3003;52200;53.490;14.376;2022-09-03T15:21:15;2.00;0.00;0.00
65556;PMS3003;52200;53.490;14.376;2022-09-03T15:24:00;2.00;0.00;0.00
65556;PMS3003;52200;53.490;14.376;2022-09-03T15:37:43;3.40;0.20;0.00
65556;PMS3003;52200;53.490;14.376;2022-09-03T15:40:22;3.00;0.00;0.00
65556;PMS3003;52200;53.490;14.376;2022-09-03T15:43:02;4.60;0.00;0.00
65556;PMS3003;52200;53.490;14.376;2022-09-03T15:45:38;3.00;0.00;0.00
65556;PMS3003;52200;53.490;14.376;2022-09-03T15:50:51;2.80;0.00;0.00
65556;PMS3003;52200;53.490;14.376;2022-09-03T15:56:33;3.20;0.20;0.00
65556;PMS3003;52200;53.490;14.376;2022-09-03T15:59:12;3.80;0.00;0.00
65556;PMS3003;52200;53.490;14.376;2022-09-03T16:01:58;5.20;1.00;0.00
65556;PMS3003;52200;53.490;14.376;2022-09-03T16:07:46;3.40;0.00;0.00
65556;PMS3003;52200;53.490;14.376;2022-09-03T16:10:17;4.40;0.00;0.00
65556;PMS3003;52200;53.490;14.376;2022-09-03T16:12:48;3.40;0.00;0.00
65556;PMS3003;52200;53.490;14.376;2022-09-03T16:21:35;3.00;0.00;0.00
65556;PMS3003;52200;53.490;14.376;2022-09-03T16:24:11;3.60;0.00;0.00
65556;PMS3003;52200;53.490;14.376;2022-09-03T16:29:27;3.60;0.40;0.00
65556;PMS3003;52200;53.490;14.376;2022-09-03T16:34:58;3.00;0.00;0.00
65556;PMS3003;52200;53.490;14.376;2022-09-03T16:37:29;6.40;0.60;0.00
65556;PMS3003;52200;53.490;14.376;2022-09-03T16:48:27;3.00;0.00;0.00
65556;PMS3003;52200;53.490;14.376;2022-09-03T16:51:09;4.00;0.00;0.00
65556;PMS3003;52200;53.490;14.376;2022-09-03T16:56:48;4.00;0.60;0.00
65556;PMS3003;52200;53.490;14.376;2022-09-03T17:02:06;4.60;0.80;0.00
65556;PMS3003;52200;53.490;14.376;2022-09-03T17:30:06;6.40;2.40;1.00
65556;PMS3003;52200;53.490;14.376;2022-09-03T17:33:07;5.00;1.00;1.00
65556;PMS3003;52200;53.490;14.376;2022-09-03T17:39:05;5.00;1.20;0.80
65556;PMS3003;52200;53.490;14.376;2022-09-03T17:42:11;5.00;0.80;0.00
65556;PMS3003;52200;53.490;14.376;2022-09-03T17:44:48;5.20;1.20;0.00
65556;PMS3003;52200;53.490;14.376;2022-09-03T17:47:37;5.00;2.00;0.40
65556;PMS3003;52200;53.490;14.376;2022-09-03T17:50:10;4.80;0.80;0.00
65556;PMS3003;52200;53.490;14.376;2022-09-03T17:52:50;4.60;1.40;0.00
65556;PMS3003;52200;53.490;14.376;2022-09-03T17:57:46;4.00;1.00;0.00
65556;PMS3003;52200;53.490;14.376;2022-09-03T18:00:21;5.00;1.00;0.00
65556;PMS3003;52200;53.490;14.376;2022-09-03T18:03:06;5.40;1.00;0.00
65556;PMS3003;52200;53.490;14.376;2022-09-03T18:08:25;5.00;2.00;1.00
65556;PMS3003;52200;53.490;14.376;2022-09-03T18:16:08;6.00;3.00;2.00
65556;PMS3003;52200;53.490;14.376;2022-09-03T18:18:57;9.20;5.20;2.00
65556;PMS3003;52200;53.490;14.376;2022-09-03T18:21:25;10.20;7.00;3.80
65556;PMS3003;52200;53.490;14.376;2022-09-03T18:30:24;20.40;15.40;9.00
65556;PMS3003;52200;53.490;14.376;2022-09-03T18:33:08;15.60;11.40;8.00
65556;PMS3003;52200;53.490;14.376;2022-09-03T18:35:52;14.20;10.40;7.60
65556;PMS3003;52200;53.490;14.376;2022-09-03T18:38:37;13.00;10.00;6.20
65556;PMS3003;52200;53.490;14.376;2022-09-03T19:00:41;8.60;5.00;3.00
65556;PMS3003;52200;53.490;14.376;2022-09-03T19:03:50;26.80;20.80;11.80
65556;PMS3003;52200;53.490;14.376;2022-09-03T19:06:45;30.80;24.20;16.60
65556;PMS3003;52200;53.490;14.376;2022-09-03T19:09:44;37.20;28.60;17.20
65556;PMS3003;52200;53.490;14.376;2022-09-03T19:16:14;26.60;22.80;14.60
65556;PMS3003;52200;53.490;14.376;2022-09-03T19:19:21;37.00;29.80;18.20
65556;PMS3003;52200;53.490;14.376;2022-09-03T19:22:31;22.60;17.40;9.60
65556;PMS3003;52200;53.490;14.376;2022-09-03T19:25:23;26.20;18.40;10.20
65556;PMS3003;52200;53.490;14.376;2022-09-03T19:28:23;8.60;3.80;2.00
65556;PMS3003;52200;53.490;14.376;2022-09-03T19:37:24;8.80;3.00;1.40
65556;PMS3003;52200;53.490;14.376;2022-09-03T19:40:15;7.00;4.00;2.00
65556;PMS3003;52200;53.490;14.376;2022-09-03T19:43:17;9.40;5.60;2.40
65556;PMS3003;52200;53.490;14.376;2022-09-03T19:46:17;8.80;5.20;3.00
65556;PMS3003;52200;53.490;14.376;2022-09-03T19:49:35;9.20;4.00;1.00
65556;PMS3003;52200;53.490;14.376;2022-09-03T19:52:44;27.60;17.20;10.80
65556;PMS3003;52200;53.490;14.376;2022-09-03T19:55:38;24.00;17.40;10.40
65556;PMS3003;52200;53.490;14.376;2022-09-03T19:58:28;33.20;27.20;15.00
65556;PMS3003;52200;53.490;14.376;2022-09-03T20:01:15;29.40;24.40;14.60
65556;PMS3003;52200;53.490;14.376;2022-09-03T20:04:11;25.60;17.20;8.80
65556;PMS3003;52200;53.490;14.376;2022-09-03T20:06:58;10.00;6.20;3.80
65556;PMS3003;52200;53.490;14.376;2022-09-03T20:09:45;9.60;4.80;2.60
65556;PMS3003;52200;53.490;14.376;2022-09-03T20:12:33;8.00;3.60;1.40
65556;PMS3003;52200;53.490;14.376;2022-09-03T20:15:04;6.00;2.80;1.00